Latest Weather Observations for Hamilton

IDV60801

Issued at 7:32 pm EDT Wednesday 22 February 2017 (issued every 30 minutes, with the page automatically refreshed every 10 minutes)

About weather observations | Map of weather stations | Latest weather observations for VIC | Other Formats
Station Details ID: 090173 Name: HAMILTON AIRPORT Lat: -37.65 Lon: 142.06 Height: 241.1 m
Data from the previous 72 hours. | See also: Recent months at Hamilton
Date/Time
EDT
Temp
°C
App
Temp
°C
Dew
Point
°C
Rel
Hum
%
Delta-T
°C
Wind Press
QNH
hPa
Press
MSL
hPa
Rain since
9am
mm
Dir  Spd
km/h
Gust
km/h
Spd
kts
Gust
kts
22/07:30pm 24.1 17.3 7.7 35 8.8 W 33 46 18 25 1008.4 1007.6 0.0
22/07:00pm 26.0 18.8 7.6 31 9.9 W 35 57 19 31 1007.9 1007.1 0.0
22/06:56pm 26.2 19.0 7.7 31 10.0 W 35 57 19 31 1007.8 1007.0 0.0
22/06:30pm 27.2 19.6 7.6 29 10.6 W 37 52 20 28 1007.5 1006.7 0.0
22/06:06pm 29.8 22.2 5.8 22 12.8 WNW 35 54 19 29 1006.8 1006.0 0.0
22/06:00pm 30.4 22.9 6.3 22 13.0 WNW 35 48 19 26 1006.7 1005.9 0.0
22/05:39pm 31.3 21.8 4.9 19 14.0 NW 44 63 24 34 1006.1 1005.4 0.0
22/05:38pm 31.3 21.8 4.9 19 14.0 NW 44 63 24 34 1006.0 1005.3 0.0
22/05:37pm 31.4 21.8 4.2 18 14.2 NNW 44 63 24 34 1005.8 1005.1 0.0
22/05:30pm 32.2 21.9 -0.8 12 16.0 NNW 43 57 23 31 1005.9 1005.2 0.0
22/05:08pm 33.6 23.3 -0.9 11 16.8 NNW 43 61 23 33 1005.9 1005.2 0.0
22/05:00pm 33.7 22.7 -2.1 10 17.2 NNW 46 59 25 32 1005.8 1005.1 0.0
22/04:40pm 33.7 23.8 -0.8 11 16.9 NNW 41 59 22 32 1005.8 1005.1 0.0
22/04:30pm 34.3 23.9 -0.4 11 17.1 NNW 44 57 24 31 1006.2 1005.5 0.0
22/04:00pm 33.6 24.3 0.3 12 16.6 NNW 39 57 21 31 1006.6 1005.8 0.0
22/03:30pm 33.1 22.9 1.0 13 16.1 NNW 44 59 24 32 1007.3 1006.5 0.0
22/03:01pm 32.6 21.4 -0.5 12 16.1 N 48 67 26 36 1008.0 1007.2 0.0
22/03:00pm 32.3 20.9 0.4 13 15.8 N 50 67 27 36 1008.0 1007.2 0.0
22/02:51pm 32.6 22.0 0.6 13 15.9 NNW 46 67 25 36 1007.9 1007.1 0.0
22/02:30pm 32.0 21.3 0.2 13 15.6 NNW 46 61 25 33 1008.5 1007.7 0.0
22/02:11pm 31.5 20.9 0.8 14 15.2 NNW 46 65 25 35 1008.6 1007.9 0.0
22/02:00pm 32.1 21.8 0.2 13 15.7 N 44 61 24 33 1009.0 1008.3 0.0
22/01:30pm 30.7 19.8 1.1 15 14.6 N 48 65 26 35 1009.4 1008.7 0.0
22/01:00pm 29.4 18.1 1.0 16 13.9 N 50 65 27 35 1010.0 1009.3 0.0
22/12:35pm 28.8 18.7 1.3 17 13.5 N 44 63 24 34 1010.1 1009.4 0.0
22/12:30pm 28.0 17.5 1.5 18 13.0 N 46 59 25 32 1010.1 1009.4 0.0
22/12:01pm 28.2 18.7 1.7 18 13.0 N 41 59 22 32 1010.4 1009.7 0.0
22/12:00pm 28.3 18.8 1.7 18 13.1 N 41 56 22 30 1010.4 1009.7 0.0
22/11:34am 26.9 17.1 2.1 20 12.2 N 43 61 23 33 1010.9 1010.1 0.0
22/11:30am 26.9 16.5 2.1 20 12.2 N 46 61 25 33 1010.9 1010.1 0.0
22/11:22am 26.1 16.2 1.4 20 11.9 N 43 61 23 33 1011.1 1010.3 0.0
22/11:00am 26.0 16.2 2.0 21 11.7 N 43 56 23 30 1011.6 1010.8 0.0
22/10:30am 25.5 15.7 2.2 22 11.3 N 43 59 23 32 1012.2 1011.5 0.0
22/10:00am 23.9 14.8 2.1 24 10.5 N 39 54 21 29 1012.7 1012.0 0.0
22/09:30am 22.4 13.4 2.5 27 9.5 N 39 56 21 30 1012.8 1012.1 0.0
22/09:25am 22.3 13.6 1.9 26 9.6 N 37 56 20 30 1012.8 1012.1 0.0
22/09:00am 20.9 14.6 3.6 32 8.4 NNE 26 41 14 22 1013.0 1012.3 0.0
22/08:30am 19.0 13.4 3.6 36 7.3 N 22 32 12 17 1013.0 1012.3 0.0
22/08:00am 16.7 11.8 4.1 43 6.0 N 19 24 10 13 1013.1 1012.4 0.0
22/07:30am 13.3 9.1 3.9 53 4.3 NE 15 17 8 9 1012.9 1012.2 0.0
22/07:00am 13.0 8.8 3.7 53 4.2 NNE 15 17 8 9 1013.0 1012.3 0.0
22/06:30am 12.3 8.5 4.0 57 3.8 NNE 13 13 7 7 1013.1 1012.4 0.0
22/06:00am 12.3 8.1 3.8 56 3.9 N 15 17 8 9 1012.8 1012.1 0.0
22/05:30am 13.0 9.9 3.4 52 4.3 N 9 11 5 6 1012.9 1012.2 0.0
22/05:00am 13.9 10.4 3.7 50 4.7 NNE 11 11 6 6 1012.8 1012.1 0.0
22/04:30am 13.1 9.6 3.7 53 4.3 NNE 11 13 6 7 1013.0 1012.3 0.0
22/04:00am 13.4 8.8 3.8 52 4.4 NNE 17 17 9 9 1013.2 1012.5 0.0
22/03:30am 13.8 9.7 4.4 53 4.4 NNE 15 19 8 10 1013.6 1012.9 0.0
22/03:00am 12.7 8.8 3.6 54 4.1 NE 13 15 7 8 1014.0 1013.3 0.0
22/02:30am 13.4 9.2 4.0 53 4.3 NE 15 17 8 9 1014.5 1013.8 0.0
22/02:00am 13.7 9.9 4.0 52 4.5 NE 13 17 7 9 1014.9 1014.2 0.0
22/01:30am 13.9 10.1 3.7 50 4.7 NE 13 17 7 9 1015.4 1014.6 0.0
22/01:00am 14.8 10.6 3.9 48 5.1 NE 15 17 8 9 1015.6 1014.8 0.0
22/12:30am 15.1 11.0 4.2 48 5.1 NE 15 17 8 9 1016.0 1015.3 0.0
22/12:00am 15.5 11.7 3.9 46 5.4 NE 13 17 7 9 1016.4 1015.7 0.0
 
Date/Time
EDT
Temp
°C
App
Temp
°C
Dew
Point
°C
Rel
Hum
%
Delta-T
°C
Wind Press
QNH
hPa
Press
MSL
hPa
Rain since
9am
mm
Dir  Spd
km/h
Gust
km/h
Spd
kts
Gust
kts
21/11:30pm 16.4 12.3 4.1 44 5.8 NE 15 17 8 9 1016.5 1015.8 0.0
21/11:00pm 16.9 12.7 3.9 42 6.1 NE 15 19 8 10 1016.8 1016.1 0.0
21/10:30pm 16.9 12.8 4.3 43 6.0 ENE 15 17 8 9 1016.9 1016.2 0.0
21/10:00pm 17.2 13.5 4.2 42 6.2 NE 13 15 7 8 1017.1 1016.4 0.0
21/09:30pm 17.6 13.8 3.9 40 6.5 NE 13 13 7 7 1016.9 1016.2 0.0
21/09:00pm 18.4 15.0 3.8 38 6.9 NE 11 13 6 7 1016.7 1016.0 0.0
21/08:30pm 19.9 16.8 3.6 34 7.8 NNE 9 11 5 6 1016.6 1015.9 0.0
21/08:00pm 22.4 18.5 3.5 29 9.2 N 13 15 7 8 1016.5 1015.8 0.0
21/07:30pm 23.8 19.6 3.7 27 9.9 N 15 20 8 11 1016.3 1015.6 0.0
21/07:00pm 24.4 19.4 3.7 26 10.3 N 19 24 10 13 1016.3 1015.6 0.0
21/06:30pm 24.7 20.3 4.5 27 10.2 N 17 26 9 14 1016.5 1015.8 0.0
21/06:00pm 24.1 20.2 3.4 26 10.2 NW 13 20 7 11 1016.6 1015.9 0.0
21/05:30pm 24.9 20.6 3.5 25 10.6 NNW 15 24 8 13 1016.8 1016.1 0.0
21/05:00pm 24.5 19.8 3.2 25 10.5 NNE 17 26 9 14 1017.3 1016.6 0.0
21/04:30pm 24.5 21.4 3.8 26 10.3 NNE 9 20 5 11 1017.5 1016.8 0.0
21/04:00pm 24.0 19.8 3.9 27 10.0 NNW 15 24 8 13 1017.8 1017.1 0.0
21/03:30pm 23.8 20.4 4.2 28 9.8 NW 11 19 6 10 1018.2 1017.5 0.0
21/03:00pm 23.2 19.7 3.7 28 9.6 NNW 11 20 6 11 1018.8 1018.1 0.0
21/02:30pm 22.5 19.2 4.5 31 9.0 NNE 11 19 6 10 1019.1 1018.4 0.0
21/02:00pm 21.5 18.5 4.1 32 8.5 WNW 9 17 5 9 1019.4 1018.8 0.0
21/01:30pm 20.7 17.3 3.9 33 8.2 NNW 11 22 6 12 1019.9 1019.2 0.0
21/01:00pm 20.7 16.8 3.4 32 8.3 WNW 13 20 7 11 1020.6 1019.9 0.0
21/12:30pm 19.5 16.6 4.4 37 7.3 N 9 20 5 11 1020.7 1020.0 0.0
21/12:00pm 18.3 14.9 4.1 39 6.8 NNW 11 19 6 10 1020.9 1020.2 0.0
21/11:30am 17.6 14.0 4.9 43 6.2 NNW 13 19 7 10 1021.3 1020.6 0.0
21/11:00am 17.4 14.3 5.7 46 5.7 NNE 11 17 6 9 1021.6 1020.9 0.0
21/10:30am 15.9 12.8 5.5 50 5.0 NE 11 19 6 10 1021.6 1020.9 0.0
21/10:00am 15.5 12.5 7.8 60 3.9 ENE 13 19 7 10 1021.6 1020.9 0.0
21/09:30am 13.8 11.1 9.0 73 2.5 ENE 13 17 7 9 1021.4 1020.7 0.0
21/09:00am 12.5 10.1 8.8 78 1.9 ENE 11 13 6 7 1021.5 1020.8 0.0
21/08:30am 11.2 9.4 9.5 89 0.9 ENE 9 11 5 6 1021.4 1020.7 0.0
21/08:00am 8.7 6.4 7.6 93 0.5 ENE 9 13 5 7 1020.9 1020.2 0.0
21/07:30am 5.7 2.4 4.8 94 0.4 ENE 11 13 6 7 1020.5 1019.8 0.0
21/07:00am 6.3 3.5 5.3 93 0.4 ENE 9 11 5 6 1020.3 1019.6 0.0
21/06:30am 6.4 3.7 5.5 94 0.4 E 9 9 5 5 1019.9 1019.2 0.0
21/06:00am 7.4 5.3 6.5 94 0.4 ENE 7 9 4 5 1019.8 1019.1 0.0
21/05:30am 7.2 5.0 6.1 93 0.5 E 7 7 4 4 1019.8 1019.1 0.0
21/05:14am 6.9 4.8 5.8 93 0.5 ENE 6 7 3 4 1019.6 1018.9 0.0
21/05:00am 6.4 4.6 5.4 93 0.4 ENE 4 6 2 3 1019.4 1018.8 0.0
21/04:55am 5.9 4.0 4.7 92 0.5 ENE 4 6 2 3 1019.4 1018.8 0.0
21/04:30am 7.3 5.1 6.2 93 0.5 ENE 7 9 4 5 1019.1 1018.4 0.0
21/04:00am 6.9 4.2 5.7 92 0.5 ENE 9 11 5 6 1019.2 1018.5 0.0
21/03:30am 6.7 4.4 5.5 92 0.5 ENE 7 7 4 4 1019.2 1018.5 0.0
21/03:00am 7.7 5.6 6.5 92 0.6 E 7 7 4 4 1019.3 1018.7 0.0
21/02:30am 7.4 6.5 6.0 91 0.6 CALM 0 0 0 0 1019.4 1018.8 0.0
21/02:00am 7.6 6.7 5.9 89 0.8 CALM 0 0 0 0 1019.4 1018.8 0.0
21/01:30am 7.6 5.8 5.4 86 1.0 ENE 4 7 2 4 1019.7 1019.0 0.0
21/01:00am 8.6 7.8 6.4 86 1.0 CALM 0 0 0 0 1019.8 1019.1 0.0
21/12:30am 9.3 8.5 6.7 84 1.2 CALM 0 0 0 0 1020.0 1019.3 0.0
21/12:00am 9.3 7.8 6.6 83 1.3 SSE 4 6 2 3 1020.0 1019.3 0.0
 
Date/Time
EDT
Temp
°C
App
Temp
°C
Dew
Point
°C
Rel
Hum
%
Delta-T
°C
Wind Press
QNH
hPa
Press
MSL
hPa
Rain since
9am
mm
Dir  Spd
km/h
Gust
km/h
Spd
kts
Gust
kts
20/11:30pm 9.1 6.9 6.4 83 1.3 SSE 7 7 4 4 1019.9 1019.2 0.0
20/11:00pm 9.6 7.1 6.5 81 1.5 SSE 9 11 5 6 1019.7 1019.0 0.0
20/10:30pm 9.9 7.8 6.6 80 1.6 SSE 7 9 4 5 1019.8 1019.1 0.0
20/10:00pm 10.1 7.6 6.4 78 1.7 S 9 11 5 6 1019.7 1019.0 0.0
20/09:30pm 10.1 7.2 6.3 77 1.8 S 11 13 6 7 1019.4 1018.8 0.0
20/09:00pm 11.4 8.1 6.3 71 2.4 S 13 17 7 9 1019.1 1018.4 0.0
20/08:30pm 12.8 8.6 5.9 63 3.3 S 17 19 9 10 1018.6 1017.9 0.0
20/08:00pm 13.8 9.7 6.2 60 3.7 S 17 22 9 12 1018.2 1017.5 0.0
20/07:30pm 14.4 9.8 6.5 59 3.9 S 20 26 11 14 1017.7 1017.0 0.0
20/07:00pm 15.1 10.2 6.7 57 4.1 S 22 30 12 16 1017.3 1016.6 0.0
20/06:30pm 15.6 9.9 6.6 55 4.4 S 26 35 14 19 1017.1 1016.4 0.0
20/06:00pm 16.4 11.1 6.8 53 4.8 S 24 30 13 16 1017.1 1016.4 0.0
20/05:30pm 16.1 10.5 7.3 56 4.4 S 26 37 14 20 1016.6 1015.9 0.0
20/05:00pm 17.3 10.9 7.1 51 5.1 S 30 39 16 21 1016.3 1015.6 0.0
20/04:30pm 18.9 12.7 6.1 43 6.4 SSW 28 39 15 21 1016.1 1015.4 0.0
20/04:00pm 16.9 12.0 4.9 45 5.8 SSW 20 28 11 15 1016.1 1015.4 0.0
20/03:30pm 17.0 11.7 6.8 51 5.1 SSW 24 35 13 19 1016.1 1015.4 0.0
20/03:00pm 18.4 13.7 5.9 44 6.2 SSW 20 28 11 15 1016.2 1015.5 0.0
20/02:30pm 15.6 10.3 6.6 55 4.4 SW 24 33 13 18 1016.5 1015.8 0.0
20/02:00pm 14.9 9.2 6.7 58 4.0 SW 26 43 14 23 1016.5 1015.8 0.0
20/01:30pm 15.6 10.9 7.6 59 4.0 WSW 22 30 12 16 1016.6 1015.9 0.0
20/01:00pm 15.4 10.4 8.2 62 3.7 SSW 24 30 13 16 1016.6 1015.9 0.0
20/12:30pm 15.7 10.8 7.0 56 4.3 SW 22 39 12 21 1016.5 1015.8 0.0
20/12:00pm 14.8 10.4 7.4 61 3.7 SW 20 28 11 15 1016.7 1016.0 0.0
20/11:30am 14.6 9.4 7.2 61 3.7 SSW 24 30 13 16 1016.6 1015.9 0.0
20/11:00am 15.7 11.1 8.2 61 3.8 SW 22 28 12 15 1016.6 1015.9 0.0
20/10:30am 14.7 10.4 9.5 71 2.7 SSW 22 32 12 17 1016.6 1015.9 0.0
20/10:00am 12.7 9.3 9.2 79 1.8 WSW 17 22 9 12 1016.5 1015.8 0.0
20/09:30am 11.2 8.5 8.9 86 1.2 WSW 13 17 7 9 1016.3 1015.6 0.0
20/09:00am 10.6 7.5 9.0 90 0.8 WSW 15 19 8 10 1016.1 1015.4 4.8
20/08:30am 9.7 7.3 8.8 94 0.4 W 11 13 6 7 1015.6 1014.8 4.8
20/08:00am 8.7 6.1 7.8 94 0.4 W 11 15 6 8 1015.1 1014.4 4.8
20/07:30am 7.6 4.7 6.7 94 0.4 W 11 13 6 7 1014.8 1014.1 4.8
20/07:00am 7.1 4.9 6.2 94 0.4 W 7 9 4 5 1014.4 1013.7 4.8
20/06:30am 7.2 4.6 6.3 94 0.4 WNW 9 13 5 7 1014.2 1013.5 4.8
20/06:00am 7.7 5.2 6.6 93 0.5 W 9 13 5 7 1014.0 1013.3 4.6
20/05:30am 7.9 4.7 6.8 93 0.5 W 13 15 7 8 1013.7 1013.0 4.6
20/05:00am 8.3 5.2 7.2 93 0.5 WSW 13 17 7 9 1013.6 1012.9 4.6
20/04:30am 8.3 5.2 7.1 92 0.6 W 13 15 7 8 1013.6 1012.9 4.6
20/04:00am 8.9 5.9 7.7 92 0.6 W 13 15 7 8 1013.6 1012.9 4.6
20/03:30am 8.5 6.1 7.1 91 0.7 W 9 13 5 7 1013.5 1012.8 4.6
20/03:00am 8.9 5.5 7.5 91 0.7 WSW 15 19 8 10 1013.6 1012.9 4.6
20/02:30am 9.2 5.8 7.6 90 0.8 W 15 17 8 9 1013.5 1012.8 4.6
20/02:00am 9.2 6.2 7.6 90 0.8 WSW 13 17 7 9 1013.6 1012.9 4.6
20/01:30am 9.1 5.6 7.4 89 0.8 SW 15 20 8 11 1013.8 1013.1 4.6
20/01:00am 9.5 6.5 7.8 89 0.8 WSW 13 17 7 9 1013.8 1013.1 4.6
20/12:30am 9.5 6.5 7.8 89 0.8 W 13 17 7 9 1013.8 1013.1 4.6
20/12:00am 9.5 6.1 7.8 89 0.8 WSW 15 19 8 10 1013.8 1013.1 4.6
 
Date/Time
EDT
Temp
°C
App
Temp
°C
Dew
Point
°C
Rel
Hum
%
Delta-T
°C
Wind Press
QNH
hPa
Press
MSL
hPa
Rain since
9am
mm
Dir  Spd
km/h
Gust
km/h
Spd
kts
Gust
kts
19/11:30pm 9.1 6.0 7.4 89 0.8 W 13 17 7 9 1013.8 1013.1 4.6
19/11:00pm 9.1 6.0 7.2 88 0.9 W 13 19 7 10 1013.8 1013.1 4.6
19/10:30pm 9.2 6.1 7.3 88 0.9 W 13 19 7 10 1013.9 1013.2 4.6
19/10:00pm 9.3 6.2 7.4 88 0.9 W 13 17 7 9 1013.7 1013.0 4.6
19/09:30pm 9.2 6.1 7.2 87 1.0 W 13 17 7 9 1013.5 1012.8 4.6
19/09:00pm 9.3 6.2 7.1 86 1.0 WSW 13 17 7 9 1013.1 1012.4 4.6
19/08:30pm 9.7 5.4 7.1 84 1.2 WSW 19 24 10 13 1012.7 1012.0 4.6
19/08:00pm 10.7 6.6 8.6 87 1.0 SSW 20 28 11 15 1012.5 1011.8 4.6

Other Formats:

Comma delimited format used in spreadsheet applications
http://www.bom.gov.au/fwo/IDV60801/IDV60801.94829.axf

JavaScript Object Notation format (JSON) in row-major order
http://www.bom.gov.au/fwo/IDV60801/IDV60801.94829.json